Racine, Pennsylvania
Current Conditions -  °F | °C
As of 2:51 PM on Saturday 20 Dec 2014 (Local Time) from KPIT Reporting Station
Scattered Clouds Scattered Clouds  
Wind Chill: 26°   Ceiling: Unl
Heat Index: 31°   Visibility: 10mi
Dew Point: 20°   Wind: 5mph
Humidity: 64%   Direction: 260°W
Pressure: 30.22"   Gusts: NA
Location:  40.7641°N, 80.3864°W
Report Text: KPIT 201951Z 26004KT 10SM SCT025 SCT200 M01/M07 A3022 RMK AO2 SLP254 T10061067
Loading
Personal Weather Stations






























Interactive Weather Map New forecast layout! Learn more

10-Day Weather Forecast

Advertisements
Track Severe Weather on mobile